sensor_id;sensor_type;location;lat;lon;timestamp;P1;durP1;ratioP1;P2;durP2;ratioP2
52564;SDS011;38460;53.106;7.004;2024-01-15T00:02:04;10.52;;;2.30;;
52564;SDS011;38460;53.106;7.004;2024-01-15T00:04:31;8.73;;;2.28;;
52564;SDS011;38460;53.106;7.004;2024-01-15T00:07:05;7.63;;;2.30;;
52564;SDS011;38460;53.106;7.004;2024-01-15T00:09:31;9.38;;;2.55;;
52564;SDS011;38460;53.106;7.004;2024-01-15T00:11:57;10.27;;;2.28;;
52564;SDS011;38460;53.106;7.004;2024-01-15T00:14:22;13.02;;;2.38;;
52564;SDS011;38460;53.106;7.004;2024-01-15T00:16:48;11.98;;;2.33;;
52564;SDS011;38460;53.106;7.004;2024-01-15T00:19:20;12.00;;;3.00;;
52564;SDS011;38460;53.106;7.004;2024-01-15T00:21:46;12.65;;;2.50;;
52564;SDS011;38460;53.106;7.004;2024-01-15T00:24:12;6.90;;;2.05;;
52564;SDS011;38460;53.106;7.004;2024-01-15T00:26:38;7.85;;;2.20;;
52564;SDS011;38460;53.106;7.004;2024-01-15T00:29:04;2.95;;;1.52;;
52564;SDS011;38460;53.106;7.004;2024-01-15T00:31:32;1.90;;;0.73;;
52564;SDS011;38460;53.106;7.004;2024-01-15T00:33:57;2.05;;;0.63;;
52564;SDS011;38460;53.106;7.004;2024-01-15T00:36:23;1.80;;;0.70;;
52564;SDS011;38460;53.106;7.004;2024-01-15T00:38:49;3.92;;;0.70;;
52564;SDS011;38460;53.106;7.004;2024-01-15T00:41:15;4.28;;;1.35;;
52564;SDS011;38460;53.106;7.004;2024-01-15T00:43:41;4.50;;;1.85;;
52564;SDS011;38460;53.106;7.004;2024-01-15T00:46:06;8.15;;;2.10;;
52564;SDS011;38460;53.106;7.004;2024-01-15T00:48:33;6.38;;;1.95;;
52564;SDS011;38460;53.106;7.004;2024-01-15T00:50:59;11.38;;;2.10;;
52564;SDS011;38460;53.106;7.004;2024-01-15T00:53:25;6.18;;;1.83;;
52564;SDS011;38460;53.106;7.004;2024-01-15T00:55:51;7.38;;;1.80;;
52564;SDS011;38460;53.106;7.004;2024-01-15T00:58:16;7.78;;;1.60;;
52564;SDS011;38460;53.106;7.004;2024-01-15T01:00:42;7.00;;;1.73;;
52564;SDS011;38460;53.106;7.004;2024-01-15T01:03:08;10.20;;;1.65;;
52564;SDS011;38460;53.106;7.004;2024-01-15T01:05:34;9.23;;;2.17;;
52564;SDS011;38460;53.106;7.004;2024-01-15T01:08:00;12.48;;;2.33;;
52564;SDS011;38460;53.106;7.004;2024-01-15T01:10:26;9.13;;;1.83;;
52564;SDS011;38460;53.106;7.004;2024-01-15T01:12:52;7.18;;;2.20;;
52564;SDS011;38460;53.106;7.004;2024-01-15T01:15:17;7.20;;;2.67;;
52564;SDS011;38460;53.106;7.004;2024-01-15T01:17:43;4.85;;;1.30;;
52564;SDS011;38460;53.106;7.004;2024-01-15T01:20:09;3.30;;;1.20;;
52564;SDS011;38460;53.106;7.004;2024-01-15T01:22:35;4.82;;;1.00;;
52564;SDS011;38460;53.106;7.004;2024-01-15T01:25:01;3.90;;;1.45;;
52564;SDS011;38460;53.106;7.004;2024-01-15T01:27:28;4.78;;;1.30;;
52564;SDS011;38460;53.106;7.004;2024-01-15T01:29:54;4.30;;;1.25;;
52564;SDS011;38460;53.106;7.004;2024-01-15T01:32:20;6.85;;;1.42;;
52564;SDS011;38460;53.106;7.004;2024-01-15T01:34:46;4.97;;;1.95;;
52564;SDS011;38460;53.106;7.004;2024-01-15T01:37:11;6.43;;;1.30;;
52564;SDS011;38460;53.106;7.004;2024-01-15T01:39:41;5.57;;;1.80;;
52564;SDS011;38460;53.106;7.004;2024-01-15T01:42:07;4.72;;;1.20;;
52564;SDS011;38460;53.106;7.004;2024-01-15T01:44:33;6.65;;;1.50;;
52564;SDS011;38460;53.106;7.004;2024-01-15T01:46:59;9.23;;;1.73;;
52564;SDS011;38460;53.106;7.004;2024-01-15T01:49:26;5.60;;;2.10;;
52564;SDS011;38460;53.106;7.004;2024-01-15T01:51:53;7.05;;;1.92;;
52564;SDS011;38460;53.106;7.004;2024-01-15T01:54:22;10.23;;;1.98;;
52564;SDS011;38460;53.106;7.004;2024-01-15T01:56:49;5.43;;;1.60;;
52564;SDS011;38460;53.106;7.004;2024-01-15T01:59:16;5.95;;;1.70;;
52564;SDS011;38460;53.106;7.004;2024-01-15T02:01:42;4.97;;;1.58;;
52564;SDS011;38460;53.106;7.004;2024-01-15T02:04:09;7.32;;;2.10;;
52564;SDS011;38460;53.106;7.004;2024-01-15T02:06:35;9.45;;;1.80;;
52564;SDS011;38460;53.106;7.004;2024-01-15T02:09:01;9.18;;;1.83;;
52564;SDS011;38460;53.106;7.004;2024-01-15T02:11:28;9.15;;;2.55;;
52564;SDS011;38460;53.106;7.004;2024-01-15T02:13:54;7.53;;;2.10;;
52564;SDS011;38460;53.106;7.004;2024-01-15T02:16:20;7.50;;;2.13;;
52564;SDS011;38460;53.106;7.004;2024-01-15T02:18:46;12.25;;;2.10;;
52564;SDS011;38460;53.106;7.004;2024-01-15T02:21:11;7.00;;;1.73;;
52564;SDS011;38460;53.106;7.004;2024-01-15T02:23:38;8.40;;;1.92;;
52564;SDS011;38460;53.106;7.004;2024-01-15T02:26:07;6.70;;;2.20;;
52564;SDS011;38460;53.106;7.004;2024-01-15T02:28:33;9.48;;;2.30;;
52564;SDS011;38460;53.106;7.004;2024-01-15T02:30:59;10.90;;;2.63;;
52564;SDS011;38460;53.106;7.004;2024-01-15T02:33:24;7.38;;;3.00;;
52564;SDS011;38460;53.106;7.004;2024-01-15T02:35:50;10.40;;;2.90;;
52564;SDS011;38460;53.106;7.004;2024-01-15T02:38:16;9.80;;;2.55;;
52564;SDS011;38460;53.106;7.004;2024-01-15T02:40:43;7.03;;;2.42;;
52564;SDS011;38460;53.106;7.004;2024-01-15T02:43:09;13.32;;;3.08;;
52564;SDS011;38460;53.106;7.004;2024-01-15T02:45:35;8.88;;;3.00;;
52564;SDS011;38460;53.106;7.004;2024-01-15T02:48:01;8.00;;;2.42;;
52564;SDS011;38460;53.106;7.004;2024-01-15T02:50:27;9.15;;;3.30;;
52564;SDS011;38460;53.106;7.004;2024-01-15T02:52:52;9.57;;;2.50;;
52564;SDS011;38460;53.106;7.004;2024-01-15T02:55:18;9.10;;;2.63;;
52564;SDS011;38460;53.106;7.004;2024-01-15T02:57:44;7.15;;;1.88;;
52564;SDS011;38460;53.106;7.004;2024-01-15T03:00:10;5.60;;;2.05;;
52564;SDS011;38460;53.106;7.004;2024-01-15T03:02:37;5.45;;;1.50;;
52564;SDS011;38460;53.106;7.004;2024-01-15T03:05:08;7.93;;;2.42;;
52564;SDS011;38460;53.106;7.004;2024-01-15T03:07:34;8.63;;;2.60;;
52564;SDS011;38460;53.106;7.004;2024-01-15T03:10:01;7.00;;;2.05;;
52564;SDS011;38460;53.106;7.004;2024-01-15T03:12:27;10.82;;;2.00;;
52564;SDS011;38460;53.106;7.004;2024-01-15T03:14:52;7.78;;;1.83;;
52564;SDS011;38460;53.106;7.004;2024-01-15T03:17:18;7.55;;;2.45;;
52564;SDS011;38460;53.106;7.004;2024-01-15T03:19:44;9.95;;;2.33;;
52564;SDS011;38460;53.106;7.004;2024-01-15T03:22:10;9.05;;;2.35;;
52564;SDS011;38460;53.106;7.004;2024-01-15T03:24:36;8.40;;;2.13;;
52564;SDS011;38460;53.106;7.004;2024-01-15T03:27:02;6.57;;;2.00;;
52564;SDS011;38460;53.106;7.004;2024-01-15T03:29:29;7.88;;;2.33;;
52564;SDS011;38460;53.106;7.004;2024-01-15T03:31:54;10.90;;;3.53;;
52564;SDS011;38460;53.106;7.004;2024-01-15T03:34:20;7.85;;;2.00;;
52564;SDS011;38460;53.106;7.004;2024-01-15T03:36:46;11.20;;;2.53;;
52564;SDS011;38460;53.106;7.004;2024-01-15T03:39:11;10.13;;;2.70;;
52564;SDS011;38460;53.106;7.004;2024-01-15T03:41:37;10.98;;;2.50;;
52564;SDS011;38460;53.106;7.004;2024-01-15T03:44:03;7.00;;;2.05;;
52564;SDS011;38460;53.106;7.004;2024-01-15T03:46:28;12.40;;;2.72;;
52564;SDS011;38460;53.106;7.004;2024-01-15T03:48:54;9.43;;;3.17;;
52564;SDS011;38460;53.106;7.004;2024-01-15T03:51:20;9.43;;;2.53;;
52564;SDS011;38460;53.106;7.004;2024-01-15T03:53:46;10.93;;;2.70;;
52564;SDS011;38460;53.106;7.004;2024-01-15T03:56:12;10.27;;;2.67;;
52564;SDS011;38460;53.106;7.004;2024-01-15T03:58:37;10.18;;;3.13;;
52564;SDS011;38460;53.106;7.004;2024-01-15T04:01:03;11.40;;;3.15;;
52564;SDS011;38460;53.106;7.004;2024-01-15T04:03:32;8.68;;;2.70;;
52564;SDS011;38460;53.106;7.004;2024-01-15T04:05:58;12.95;;;2.58;;
52564;SDS011;38460;53.106;7.004;2024-01-15T04:08:24;8.73;;;2.20;;
52564;SDS011;38460;53.106;7.004;2024-01-15T04:10:49;6.65;;;2.22;;
52564;SDS011;38460;53.106;7.004;2024-01-15T04:13:15;10.68;;;2.63;;
52564;SDS011;38460;53.106;7.004;2024-01-15T04:15:41;12.38;;;2.40;;
52564;SDS011;38460;53.106;7.004;2024-01-15T04:18:07;9.45;;;2.22;;
52564;SDS011;38460;53.106;7.004;2024-01-15T04:20:32;10.38;;;2.67;;
52564;SDS011;38460;53.106;7.004;2024-01-15T04:22:58;6.22;;;2.60;;
52564;SDS011;38460;53.106;7.004;2024-01-15T04:25:24;8.30;;;2.78;;
52564;SDS011;38460;53.106;7.004;2024-01-15T04:27:50;6.50;;;2.40;;
52564;SDS011;38460;53.106;7.004;2024-01-15T04:30:15;15.43;;;3.20;;
52564;SDS011;38460;53.106;7.004;2024-01-15T04:32:41;8.10;;;2.50;;
52564;SDS011;38460;53.106;7.004;2024-01-15T04:35:07;9.38;;;2.88;;
52564;SDS011;38460;53.106;7.004;2024-01-15T04:37:33;12.30;;;2.72;;
52564;SDS011;38460;53.106;7.004;2024-01-15T04:39:58;7.68;;;2.05;;
52564;SDS011;38460;53.106;7.004;2024-01-15T04:42:24;6.43;;;1.65;;
52564;SDS011;38460;53.106;7.004;2024-01-15T04:44:50;8.77;;;3.13;;
52564;SDS011;38460;53.106;7.004;2024-01-15T04:47:16;10.80;;;2.28;;
52564;SDS011;38460;53.106;7.004;2024-01-15T04:49:42;10.90;;;2.50;;
52564;SDS011;38460;53.106;7.004;2024-01-15T04:52:07;8.32;;;2.58;;
52564;SDS011;38460;53.106;7.004;2024-01-15T04:54:35;11.95;;;3.08;;
52564;SDS011;38460;53.106;7.004;2024-01-15T04:57:01;10.95;;;3.13;;
52564;SDS011;38460;53.106;7.004;2024-01-15T04:59:27;8.98;;;3.17;;
52564;SDS011;38460;53.106;7.004;2024-01-15T05:01:53;8.85;;;2.47;;
52564;SDS011;38460;53.106;7.004;2024-01-15T05:04:20;8.43;;;2.33;;
52564;SDS011;38460;53.106;7.004;2024-01-15T05:06:46;8.90;;;2.55;;
52564;SDS011;38460;53.106;7.004;2024-01-15T05:09:11;6.38;;;1.80;;
52564;SDS011;38460;53.106;7.004;2024-01-15T05:11:38;7.63;;;1.85;;
52564;SDS011;38460;53.106;7.004;2024-01-15T05:14:04;11.95;;;2.92;;
52564;SDS011;38460;53.106;7.004;2024-01-15T05:16:30;7.38;;;2.42;;
52564;SDS011;38460;53.106;7.004;2024-01-15T05:18:56;8.57;;;2.60;;
52564;SDS011;38460;53.106;7.004;2024-01-15T05:21:21;4.93;;;1.80;;
52564;SDS011;38460;53.106;7.004;2024-01-15T05:23:47;10.50;;;2.15;;
52564;SDS011;38460;53.106;7.004;2024-01-15T05:26:13;10.43;;;2.30;;
52564;SDS011;38460;53.106;7.004;2024-01-15T05:28:41;7.35;;;1.92;;
52564;SDS011;38460;53.106;7.004;2024-01-15T05:31:07;5.80;;;2.10;;
52564;SDS011;38460;53.106;7.004;2024-01-15T05:33:34;8.43;;;1.98;;
52564;SDS011;38460;53.106;7.004;2024-01-15T05:35:59;8.40;;;2.00;;
52564;SDS011;38460;53.106;7.004;2024-01-15T05:38:25;5.03;;;1.88;;
52564;SDS011;38460;53.106;7.004;2024-01-15T05:40:51;8.70;;;2.80;;
52564;SDS011;38460;53.106;7.004;2024-01-15T05:43:17;7.07;;;1.98;;
52564;SDS011;38460;53.106;7.004;2024-01-15T05:45:43;7.60;;;1.50;;
52564;SDS011;38460;53.106;7.004;2024-01-15T05:48:09;4.57;;;1.35;;
52564;SDS011;38460;53.106;7.004;2024-01-15T05:50:35;5.75;;;1.20;;
52564;SDS011;38460;53.106;7.004;2024-01-15T05:53:01;5.28;;;1.27;;
52564;SDS011;38460;53.106;7.004;2024-01-15T05:55:27;5.30;;;1.20;;
52564;SDS011;38460;53.106;7.004;2024-01-15T05:57:53;9.25;;;1.52;;
52564;SDS011;38460;53.106;7.004;2024-01-15T06:00:19;8.80;;;1.90;;
52564;SDS011;38460;53.106;7.004;2024-01-15T06:02:45;2.38;;;1.23;;
52564;SDS011;38460;53.106;7.004;2024-01-15T06:05:10;5.90;;;1.60;;
52564;SDS011;38460;53.106;7.004;2024-01-15T06:07:36;7.35;;;1.63;;
52564;SDS011;38460;53.106;7.004;2024-01-15T06:10:02;5.03;;;1.60;;
52564;SDS011;38460;53.106;7.004;2024-01-15T06:12:30;6.32;;;1.55;;
52564;SDS011;38460;53.106;7.004;2024-01-15T06:14:57;3.13;;;1.90;;
52564;SDS011;38460;53.106;7.004;2024-01-15T06:17:23;7.15;;;1.50;;
52564;SDS011;38460;53.106;7.004;2024-01-15T06:19:48;4.20;;;1.00;;
52564;SDS011;38460;53.106;7.004;2024-01-15T06:22:14;9.23;;;2.38;;
52564;SDS011;38460;53.106;7.004;2024-01-15T06:24:40;4.35;;;1.35;;
52564;SDS011;38460;53.106;7.004;2024-01-15T06:27:06;6.28;;;1.38;;
52564;SDS011;38460;53.106;7.004;2024-01-15T06:29:32;6.85;;;1.92;;
52564;SDS011;38460;53.106;7.004;2024-01-15T06:31:57;5.45;;;1.48;;
52564;SDS011;38460;53.106;7.004;2024-01-15T06:34:23;10.32;;;1.75;;
52564;SDS011;38460;53.106;7.004;2024-01-15T06:36:49;7.10;;;1.60;;
52564;SDS011;38460;53.106;7.004;2024-01-15T06:39:14;9.77;;;2.10;;
52564;SDS011;38460;53.106;7.004;2024-01-15T06:41:40;6.50;;;1.63;;
52564;SDS011;38460;53.106;7.004;2024-01-15T06:44:09;11.10;;;2.05;;
52564;SDS011;38460;53.106;7.004;2024-01-15T06:46:36;7.95;;;1.90;;
52564;SDS011;38460;53.106;7.004;2024-01-15T06:49:02;6.95;;;1.83;;
52564;SDS011;38460;53.106;7.004;2024-01-15T06:51:28;8.30;;;2.20;;
52564;SDS011;38460;53.106;7.004;2024-01-15T06:53:54;5.90;;;1.48;;
52564;SDS011;38460;53.106;7.004;2024-01-15T06:56:20;11.00;;;2.40;;
52564;SDS011;38460;53.106;7.004;2024-01-15T06:58:46;8.55;;;2.17;;
52564;SDS011;38460;53.106;7.004;2024-01-15T07:01:11;7.80;;;2.30;;
52564;SDS011;38460;53.106;7.004;2024-01-15T07:03:37;5.50;;;1.70;;
52564;SDS011;38460;53.106;7.004;2024-01-15T07:06:03;5.18;;;1.52;;
52564;SDS011;38460;53.106;7.004;2024-01-15T07:08:29;9.85;;;2.25;;
52564;SDS011;38460;53.106;7.004;2024-01-15T07:10:56;9.43;;;2.13;;
52564;SDS011;38460;53.106;7.004;2024-01-15T07:13:22;7.28;;;1.98;;
52564;SDS011;38460;53.106;7.004;2024-01-15T07:15:47;5.85;;;2.03;;
52564;SDS011;38460;53.106;7.004;2024-01-15T07:18:13;7.57;;;2.10;;
52564;SDS011;38460;53.106;7.004;2024-01-15T07:20:39;9.50;;;1.85;;
52564;SDS011;38460;53.106;7.004;2024-01-15T07:23:04;4.78;;;1.95;;
52564;SDS011;38460;53.106;7.004;2024-01-15T07:25:30;5.40;;;1.83;;
52564;SDS011;38460;53.106;7.004;2024-01-15T07:27:56;7.82;;;2.38;;
52564;SDS011;38460;53.106;7.004;2024-01-15T07:30:22;10.40;;;2.67;;
52564;SDS011;38460;53.106;7.004;2024-01-15T07:32:47;12.23;;;2.78;;
52564;SDS011;38460;53.106;7.004;2024-01-15T07:35:14;13.82;;;2.50;;
52564;SDS011;38460;53.106;7.004;2024-01-15T07:37:40;7.82;;;2.17;;
52564;SDS011;38460;53.106;7.004;2024-01-15T07:40:06;5.63;;;2.13;;
52564;SDS011;38460;53.106;7.004;2024-01-15T07:42:34;11.60;;;2.25;;
52564;SDS011;38460;53.106;7.004;2024-01-15T07:45:00;10.80;;;1.83;;
52564;SDS011;38460;53.106;7.004;2024-01-15T07:47:26;9.73;;;2.20;;
52564;SDS011;38460;53.106;7.004;2024-01-15T07:49:52;10.25;;;2.28;;
52564;SDS011;38460;53.106;7.004;2024-01-15T07:52:18;5.95;;;2.45;;
52564;SDS011;38460;53.106;7.004;2024-01-15T07:54:45;5.60;;;1.83;;
52564;SDS011;38460;53.106;7.004;2024-01-15T07:57:10;8.65;;;2.88;;
52564;SDS011;38460;53.106;7.004;2024-01-15T07:59:36;9.70;;;2.63;;
52564;SDS011;38460;53.106;7.004;2024-01-15T08:02:02;8.70;;;2.42;;
52564;SDS011;38460;53.106;7.004;2024-01-15T08:04:28;8.52;;;2.45;;
52564;SDS011;38460;53.106;7.004;2024-01-15T08:06:54;9.82;;;2.45;;
52564;SDS011;38460;53.106;7.004;2024-01-15T08:09:20;6.28;;;1.98;;
52564;SDS011;38460;53.106;7.004;2024-01-15T08:11:45;12.80;;;2.53;;
52564;SDS011;38460;53.106;7.004;2024-01-15T08:14:11;6.07;;;1.98;;
52564;SDS011;38460;53.106;7.004;2024-01-15T08:16:38;7.45;;;1.77;;
52564;SDS011;38460;53.106;7.004;2024-01-15T08:19:04;7.22;;;2.20;;
52564;SDS011;38460;53.106;7.004;2024-01-15T08:21:30;10.13;;;2.30;;
52564;SDS011;38460;53.106;7.004;2024-01-15T08:24:00;9.57;;;2.38;;
52564;SDS011;38460;53.106;7.004;2024-01-15T08:26:29;8.82;;;2.40;;
52564;SDS011;38460;53.106;7.004;2024-01-15T08:28:55;15.48;;;3.17;;
52564;SDS011;38460;53.106;7.004;2024-01-15T08:31:22;9.70;;;3.08;;
52564;SDS011;38460;53.106;7.004;2024-01-15T08:33:48;9.27;;;2.20;;
52564;SDS011;38460;53.106;7.004;2024-01-15T08:36:13;8.60;;;2.15;;
52564;SDS011;38460;53.106;7.004;2024-01-15T08:38:39;5.53;;;1.98;;
52564;SDS011;38460;53.106;7.004;2024-01-15T08:41:05;8.82;;;1.90;;
52564;SDS011;38460;53.106;7.004;2024-01-15T08:43:30;12.38;;;2.47;;
52564;SDS011;38460;53.106;7.004;2024-01-15T08:45:56;8.85;;;1.85;;
52564;SDS011;38460;53.106;7.004;2024-01-15T08:48:22;6.75;;;1.70;;
52564;SDS011;38460;53.106;7.004;2024-01-15T08:50:48;5.22;;;1.60;;
52564;SDS011;38460;53.106;7.004;2024-01-15T08:53:14;4.88;;;1.70;;
52564;SDS011;38460;53.106;7.004;2024-01-15T08:55:40;7.97;;;1.48;;
52564;SDS011;38460;53.106;7.004;2024-01-15T08:58:09;6.60;;;1.42;;
52564;SDS011;38460;53.106;7.004;2024-01-15T09:00:35;6.15;;;1.30;;
52564;SDS011;38460;53.106;7.004;2024-01-15T09:03:01;6.85;;;1.88;;
52564;SDS011;38460;53.106;7.004;2024-01-15T09:05:28;5.82;;;1.80;;
52564;SDS011;38460;53.106;7.004;2024-01-15T09:07:54;6.13;;;1.60;;
52564;SDS011;38460;53.106;7.004;2024-01-15T09:10:20;8.25;;;1.80;;
52564;SDS011;38460;53.106;7.004;2024-01-15T09:12:46;6.20;;;1.50;;
52564;SDS011;38460;53.106;7.004;2024-01-15T09:15:12;7.97;;;1.90;;
52564;SDS011;38460;53.106;7.004;2024-01-15T09:17:37;5.85;;;1.98;;
52564;SDS011;38460;53.106;7.004;2024-01-15T09:20:03;9.57;;;1.77;;
52564;SDS011;38460;53.106;7.004;2024-01-15T09:22:31;8.82;;;1.80;;
52564;SDS011;38460;53.106;7.004;2024-01-15T09:24:56;7.85;;;2.20;;
52564;SDS011;38460;53.106;7.004;2024-01-15T09:27:23;5.72;;;2.72;;
52564;SDS011;38460;53.106;7.004;2024-01-15T09:29:51;4.32;;;1.88;;
52564;SDS011;38460;53.106;7.004;2024-01-15T09:32:19;8.70;;;2.40;;
52564;SDS011;38460;53.106;7.004;2024-01-15T09:34:46;6.32;;;3.30;;
52564;SDS011;38460;53.106;7.004;2024-01-15T09:37:12;9.10;;;6.70;;
52564;SDS011;38460;53.106;7.004;2024-01-15T09:39:39;11.65;;;6.55;;
52564;SDS011;38460;53.106;7.004;2024-01-15T09:42:05;5.97;;;2.45;;
52564;SDS011;38460;53.106;7.004;2024-01-15T09:44:32;6.30;;;1.70;;
52564;SDS011;38460;53.106;7.004;2024-01-15T09:46:58;8.45;;;1.50;;
52564;SDS011;38460;53.106;7.004;2024-01-15T09:49:24;7.47;;;1.95;;
52564;SDS011;38460;53.106;7.004;2024-01-15T09:51:50;4.15;;;1.30;;
52564;SDS011;38460;53.106;7.004;2024-01-15T09:54:16;6.60;;;1.33;;
52564;SDS011;38460;53.106;7.004;2024-01-15T09:56:45;2.83;;;1.40;;
52564;SDS011;38460;53.106;7.004;2024-01-15T09:59:14;4.95;;;1.30;;
52564;SDS011;38460;53.106;7.004;2024-01-15T10:04:13;9.63;;;1.42;;
52564;SDS011;38460;53.106;7.004;2024-01-15T10:06:43;7.88;;;1.63;;
52564;SDS011;38460;53.106;7.004;2024-01-15T10:09:11;8.40;;;1.63;;
52564;SDS011;38460;53.106;7.004;2024-01-15T10:11:40;6.20;;;1.48;;
52564;SDS011;38460;53.106;7.004;2024-01-15T10:14:06;5.47;;;1.63;;
52564;SDS011;38460;53.106;7.004;2024-01-15T10:16:33;7.78;;;2.08;;
52564;SDS011;38460;53.106;7.004;2024-01-15T10:18:59;5.47;;;1.73;;
52564;SDS011;38460;53.106;7.004;2024-01-15T10:21:25;5.63;;;1.75;;
52564;SDS011;38460;53.106;7.004;2024-01-15T10:23:51;5.95;;;2.33;;
52564;SDS011;38460;53.106;7.004;2024-01-15T10:26:17;5.95;;;1.70;;
52564;SDS011;38460;53.106;7.004;2024-01-15T10:28:43;6.05;;;1.70;;
52564;SDS011;38460;53.106;7.004;2024-01-15T10:31:08;8.13;;;1.90;;
52564;SDS011;38460;53.106;7.004;2024-01-15T10:33:35;6.88;;;1.77;;
52564;SDS011;38460;53.106;7.004;2024-01-15T10:36:00;8.60;;;1.48;;
52564;SDS011;38460;53.106;7.004;2024-01-15T10:38:26;5.43;;;1.80;;
52564;SDS011;38460;53.106;7.004;2024-01-15T10:40:52;4.60;;;1.30;;
52564;SDS011;38460;53.106;7.004;2024-01-15T10:43:19;5.22;;;1.58;;
52564;SDS011;38460;53.106;7.004;2024-01-15T10:45:49;5.53;;;1.42;;
52564;SDS011;38460;53.106;7.004;2024-01-15T10:48:16;4.40;;;1.30;;
52564;SDS011;38460;53.106;7.004;2024-01-15T10:50:46;6.85;;;1.50;;
52564;SDS011;38460;53.106;7.004;2024-01-15T10:53:13;5.03;;;1.83;;
52564;SDS011;38460;53.106;7.004;2024-01-15T10:55:41;8.43;;;1.75;;
52564;SDS011;38460;53.106;7.004;2024-01-15T10:58:08;5.65;;;1.65;;
52564;SDS011;38460;53.106;7.004;2024-01-15T11:00:35;4.95;;;1.60;;
52564;SDS011;38460;53.106;7.004;2024-01-15T11:03:03;7.53;;;2.17;;
52564;SDS011;38460;53.106;7.004;2024-01-15T11:05:43;7.10;;;1.70;;
52564;SDS011;38460;53.106;7.004;2024-01-15T11:08:10;5.32;;;1.65;;
52564;SDS011;38460;53.106;7.004;2024-01-15T11:10:39;8.57;;;2.10;;
52564;SDS011;38460;53.106;7.004;2024-01-15T11:13:15;7.45;;;2.08;;
52564;SDS011;38460;53.106;7.004;2024-01-15T11:15:54;7.15;;;2.00;;
52564;SDS011;38460;53.106;7.004;2024-01-15T11:18:22;5.55;;;2.28;;
52564;SDS011;38460;53.106;7.004;2024-01-15T11:29:10;8.90;;;1.88;;
52564;SDS011;38460;53.106;7.004;2024-01-15T11:34:20;5.70;;;1.98;;
52564;SDS011;38460;53.106;7.004;2024-01-15T11:37:06;5.55;;;2.47;;
52564;SDS011;38460;53.106;7.004;2024-01-15T11:41:58;14.00;;;8.43;;
52564;SDS011;38460;53.106;7.004;2024-01-15T11:44:26;11.18;;;7.15;;
52564;SDS011;38460;53.106;7.004;2024-01-15T11:51:59;7.15;;;2.40;;
52564;SDS011;38460;53.106;7.004;2024-01-15T11:54:27;5.80;;;2.30;;
52564;SDS011;38460;53.106;7.004;2024-01-15T11:56:58;6.55;;;1.92;;
52564;SDS011;38460;53.106;7.004;2024-01-15T11:59:29;4.95;;;2.10;;
52564;SDS011;38460;53.106;7.004;2024-01-15T12:01:55;5.40;;;2.63;;
52564;SDS011;38460;53.106;7.004;2024-01-15T12:04:21;1.83;;;1.00;;
52564;SDS011;38460;53.106;7.004;2024-01-15T12:06:47;7.47;;;1.50;;
52564;SDS011;38460;53.106;7.004;2024-01-15T12:09:13;5.70;;;1.20;;
52564;SDS011;38460;53.106;7.004;2024-01-15T12:11:38;5.88;;;1.27;;
52564;SDS011;38460;53.106;7.004;2024-01-15T12:16:36;1.83;;;0.90;;
52564;SDS011;38460;53.106;7.004;2024-01-15T12:22:43;3.78;;;0.82;;
52564;SDS011;38460;53.106;7.004;2024-01-15T12:25:09;3.72;;;1.00;;
52564;SDS011;38460;53.106;7.004;2024-01-15T12:27:35;4.35;;;1.38;;
52564;SDS011;38460;53.106;7.004;2024-01-15T12:30:01;1.98;;;0.77;;
52564;SDS011;38460;53.106;7.004;2024-01-15T12:32:28;2.55;;;0.90;;
52564;SDS011;38460;53.106;7.004;2024-01-15T12:34:54;3.30;;;1.42;;
52564;SDS011;38460;53.106;7.004;2024-01-15T12:37:20;2.28;;;0.82;;
52564;SDS011;38460;53.106;7.004;2024-01-15T12:39:47;2.47;;;0.70;;
52564;SDS011;38460;53.106;7.004;2024-01-15T12:42:16;3.55;;;0.80;;
52564;SDS011;38460;53.106;7.004;2024-01-15T12:44:42;2.92;;;0.80;;
52564;SDS011;38460;53.106;7.004;2024-01-15T12:47:10;1.95;;;0.75;;
52564;SDS011;38460;53.106;7.004;2024-01-15T12:49:36;2.72;;;1.00;;
52564;SDS011;38460;53.106;7.004;2024-01-15T12:52:02;1.77;;;0.80;;
52564;SDS011;38460;53.106;7.004;2024-01-15T12:54:28;3.22;;;1.00;;
52564;SDS011;38460;53.106;7.004;2024-01-15T12:56:54;7.10;;;1.35;;
52564;SDS011;38460;53.106;7.004;2024-01-15T12:59:20;4.35;;;1.00;;
52564;SDS011;38460;53.106;7.004;2024-01-15T13:01:46;4.30;;;1.20;;
52564;SDS011;38460;53.106;7.004;2024-01-15T13:04:20;3.30;;;1.33;;
52564;SDS011;38460;53.106;7.004;2024-01-15T13:06:47;6.00;;;1.30;;
52564;SDS011;38460;53.106;7.004;2024-01-15T13:09:14;6.43;;;1.13;;
52564;SDS011;38460;53.106;7.004;2024-01-15T13:11:40;3.35;;;1.27;;
52564;SDS011;38460;53.106;7.004;2024-01-15T13:14:06;5.95;;;1.50;;
52564;SDS011;38460;53.106;7.004;2024-01-15T13:16:32;5.93;;;1.58;;
52564;SDS011;38460;53.106;7.004;2024-01-15T13:18:57;4.50;;;1.23;;
52564;SDS011;38460;53.106;7.004;2024-01-15T13:21:24;6.82;;;1.52;;
52564;SDS011;38460;53.106;7.004;2024-01-15T13:23:50;5.90;;;1.52;;
52564;SDS011;38460;53.106;7.004;2024-01-15T13:26:16;5.05;;;1.30;;
52564;SDS011;38460;53.106;7.004;2024-01-15T13:28:43;3.75;;;1.10;;
52564;SDS011;38460;53.106;7.004;2024-01-15T13:31:09;3.55;;;0.98;;
52564;SDS011;38460;53.106;7.004;2024-01-15T13:33:35;4.18;;;1.23;;
52564;SDS011;38460;53.106;7.004;2024-01-15T13:36:01;2.47;;;1.13;;
52564;SDS011;38460;53.106;7.004;2024-01-15T13:38:27;5.70;;;1.30;;
52564;SDS011;38460;53.106;7.004;2024-01-15T13:40:56;5.82;;;2.00;;
52564;SDS011;38460;53.106;7.004;2024-01-15T13:43:22;8.27;;;2.05;;
52564;SDS011;38460;53.106;7.004;2024-01-15T13:45:48;8.27;;;1.60;;
52564;SDS011;38460;53.106;7.004;2024-01-15T13:48:14;8.75;;;1.75;;
52564;SDS011;38460;53.106;7.004;2024-01-15T13:50:40;4.07;;;2.35;;
52564;SDS011;38460;53.106;7.004;2024-01-15T13:53:05;5.95;;;1.70;;
52564;SDS011;38460;53.106;7.004;2024-01-15T13:55:31;7.85;;;1.83;;
52564;SDS011;38460;53.106;7.004;2024-01-15T13:57:57;6.82;;;1.60;;
52564;SDS011;38460;53.106;7.004;2024-01-15T14:00:23;5.38;;;1.70;;
52564;SDS011;38460;53.106;7.004;2024-01-15T14:02:48;6.88;;;1.77;;
52564;SDS011;38460;53.106;7.004;2024-01-15T14:05:14;6.80;;;1.52;;
52564;SDS011;38460;53.106;7.004;2024-01-15T14:07:41;6.95;;;1.88;;
52564;SDS011;38460;53.106;7.004;2024-01-15T14:10:08;4.65;;;1.20;;
52564;SDS011;38460;53.106;7.004;2024-01-15T14:12:35;3.58;;;1.40;;
52564;SDS011;38460;53.106;7.004;2024-01-15T14:15:02;6.32;;;1.25;;
52564;SDS011;38460;53.106;7.004;2024-01-15T14:17:29;7.97;;;1.33;;
52564;SDS011;38460;53.106;7.004;2024-01-15T14:19:54;3.28;;;1.05;;
52564;SDS011;38460;53.106;7.004;2024-01-15T14:22:20;13.50;;;7.97;;
52564;SDS011;38460;53.106;7.004;2024-01-15T14:24:46;12.98;;;9.50;;
52564;SDS011;38460;53.106;7.004;2024-01-15T14:27:11;21.63;;;15.32;;
52564;SDS011;38460;53.106;7.004;2024-01-15T14:29:37;31.73;;;15.50;;
52564;SDS011;38460;53.106;7.004;2024-01-15T14:32:03;46.15;;;28.67;;
52564;SDS011;38460;53.106;7.004;2024-01-15T14:34:29;16.73;;;9.27;;
52564;SDS011;38460;53.106;7.004;2024-01-15T14:36:55;10.23;;;6.93;;
52564;SDS011;38460;53.106;7.004;2024-01-15T14:39:23;8.13;;;4.45;;
52564;SDS011;38460;53.106;7.004;2024-01-15T14:41:50;11.98;;;7.03;;
52564;SDS011;38460;53.106;7.004;2024-01-15T14:44:16;4.57;;;1.60;;
52564;SDS011;38460;53.106;7.004;2024-01-15T14:46:42;9.00;;;2.65;;
52564;SDS011;38460;53.106;7.004;2024-01-15T14:49:08;8.40;;;2.28;;
52564;SDS011;38460;53.106;7.004;2024-01-15T14:51:34;5.85;;;1.73;;
52564;SDS011;38460;53.106;7.004;2024-01-15T14:53:59;5.07;;;1.67;;
52564;SDS011;38460;53.106;7.004;2024-01-15T14:56:25;6.10;;;2.05;;
52564;SDS011;38460;53.106;7.004;2024-01-15T14:58:51;8.70;;;2.22;;
52564;SDS011;38460;53.106;7.004;2024-01-15T15:01:17;7.15;;;1.88;;
52564;SDS011;38460;53.106;7.004;2024-01-15T15:03:42;3.28;;;1.40;;
52564;SDS011;38460;53.106;7.004;2024-01-15T15:06:09;6.63;;;1.40;;
52564;SDS011;38460;53.106;7.004;2024-01-15T15:08:35;5.40;;;2.55;;